Thunder radar more information blitzortung!


Radar de pluja more information rain snow radar


Visita la nostra xarxa de llocs de meteo:

Template documentation
and downloads

And another site



No particular awareness of the weather is required.    There are no Weather-warnings

Pagina Historial Weather Underground text

Diari Resum Juliol 27, 2017 Unitats:  Tant    Imperial   Mètric
« Previous Dia
SegĂźent Dia »
Diari Setmana Mensual Anual Personalitzada
  Maxima: Minima: Media:
Temperatura: 91.9 °F /  33.3 °C 64.4 °F /  18.0 °C 81.3 °F /  27.4 °C
Punt de rosada: 66.7 °F /  19.3 °C 57.2 °F /  14.0 °C 63.7 °F /  17.6 °C
Humitat: 83 % 42 % 57 %
Wind Speed: 11.5 mph /  18.5 km/h - 3.7 mph /  6 km/h
RĂ fegues de vent: 11.5 mph /  18.5 km/h - -
Vent:- - SSW
Pression baro: 29.9 in /  1013.8 hPa 29.8 in /  1009.0 hPa -
Precipitacions: 0 in /  0.0 mm    
Historical Graphs
 
 
Dades de taula per Juliol 27, 2017
Temps Temperatura Punt de rosada Pression baro Vent Wind Speed RĂ fegues de vent Humitat Rainfall Rate (Hourly)
00:01 71.1 °F /  21.7 °C 57.7 °F /  14.3 °C 29.9 in /  1013.8 hPa NE 1.2 mph /  1.9 km/h 1.2 mph /  1.9 km/h 63 % 0 in /  0.0 mm
00:05 65.7 °F /  18.7 °C 57.9 °F /  14.4 °C 29.9 in /  1013.8 hPa Calm     76 % 0 in /  0.0 mm
00:15 65.1 °F /  18.4 °C 57.4 °F /  14.1 °C 29.9 in /  1013.8 hPa Calm   2 mph /  3.2 km/h 76 % 0 in /  0.0 mm
00:25 65.1 °F /  18.4 °C 57.4 °F /  14.1 °C 29.9 in /  1013.8 hPa Calm     76 % 0 in /  0.0 mm
00:35 65.1 °F /  18.4 °C 57.7 °F /  14.3 °C 29.9 in /  1013.8 hPa SW 1 mph /  1.6 km/h 1 mph /  1.6 km/h 77 % 0 in /  0.0 mm
00:45 64.8 °F /  18.2 °C 57.4 °F /  14.1 °C 29.9 in /  1013.8 hPa Calm   1 mph /  1.6 km/h 77 % 0 in /  0.0 mm
00:55 64.6 °F /  18.1 °C 57.2 °F /  14.0 °C 29.9 in /  1013.8 hPa Calm   1 mph /  1.6 km/h 77 % 0 in /  0.0 mm
01:05 64.6 °F /  18.1 °C 57.6 °F /  14.2 °C 29.9 in /  1013.8 hPa SSW 1 mph /  1.6 km/h 1 mph /  1.6 km/h 78 % 0 in /  0.0 mm
01:15 64.4 °F /  18.0 °C 57.4 °F /  14.1 °C 29.9 in /  1013.8 hPa Calm     78 % 0 in /  0.0 mm
01:25 64.4 °F /  18.0 °C 57.4 °F /  14.1 °C 29.9 in /  1013.8 hPa Calm     78 % 0 in /  0.0 mm
01:35 64.4 °F /  18.0 °C 57.4 °F /  14.1 °C 29.9 in /  1013.8 hPa Calm     78 % 0 in /  0.0 mm
01:45 64.4 °F /  18.0 °C 57.4 °F /  14.1 °C 29.9 in /  1013.8 hPa Calm     78 % 0 in /  0.0 mm
01:55 64.4 °F /  18.0 °C 57.4 °F /  14.1 °C 29.9 in /  1013.8 hPa Calm     78 % 0 in /  0.0 mm
02:05 64.6 °F /  18.1 °C 57.9 °F /  14.4 °C 29.9 in /  1013.8 hPa Calm     79 % 0 in /  0.0 mm
02:15 65.1 °F /  18.4 °C 58.5 °F /  14.7 °C 29.9 in /  1013.8 hPa Calm     79 % 0 in /  0.0 mm
02:25 65.5 °F /  18.6 °C 58.5 °F /  14.7 °C 29.9 in /  1013.8 hPa Calm   2 mph /  3.2 km/h 78 % 0 in /  0.0 mm
02:35 65.5 °F /  18.6 °C 58.5 °F /  14.7 °C 29.9 in /  1013.8 hPa SSW 1 mph /  1.6 km/h 2 mph /  3.2 km/h 78 % 0 in /  0.0 mm
02:45 65.8 °F /  18.8 °C 58.8 °F /  14.9 °C 29.9 in /  1013.8 hPa SW 1 mph /  1.6 km/h 2 mph /  3.2 km/h 78 % 0 in /  0.0 mm
02:55 65.5 °F /  18.6 °C 58.5 °F /  14.7 °C 29.9 in /  1013.8 hPa Calm   2 mph /  3.2 km/h 78 % 0 in /  0.0 mm
03:05 66 °F /  18.9 °C 59 °F /  15.0 °C 29.9 in /  1013.8 hPa WSW 1 mph /  1.6 km/h 2 mph /  3.2 km/h 78 % 0 in /  0.0 mm
03:15 66.4 °F /  19.1 °C 58.6 °F /  14.8 °C 29.9 in /  1013.8 hPa WSW 1 mph /  1.6 km/h 2 mph /  3.2 km/h 76 % 0 in /  0.0 mm
03:25 67.3 °F /  19.6 °C 59.5 °F /  15.3 °C 29.9 in /  1012.8 hPa Calm   2 mph /  3.2 km/h 76 % 0 in /  0.0 mm
03:35 68.5 °F /  20.3 °C 59.9 °F /  15.5 °C 29.9 in /  1013.8 hPa South 1 mph /  1.6 km/h 2 mph /  3.2 km/h 74 % 0 in /  0.0 mm
03:45 70 °F /  21.1 °C 60.4 °F /  15.8 °C 29.9 in /  1013.8 hPa ENE 1 mph /  1.6 km/h 2 mph /  3.2 km/h 72 % 0 in /  0.0 mm
03:55 70.9 °F /  21.6 °C 60.6 °F /  15.9 °C 29.9 in /  1013.8 hPa NE 1 mph /  1.6 km/h 2 mph /  3.2 km/h 70 % 0 in /  0.0 mm
04:05 71.6 °F /  22.0 °C 60.4 °F /  15.8 °C 29.9 in /  1013.8 hPa ENE 2 mph /  3.2 km/h 2 mph /  3.2 km/h 68 % 0 in /  0.0 mm
04:15 73.2 °F /  22.9 °C 61.5 °F /  16.4 °C 29.9 in /  1013.8 hPa ENE 1 mph /  1.6 km/h 1 mph /  1.6 km/h 67 % 0 in /  0.0 mm
04:25 74.1 °F /  23.4 °C 62.1 °F /  16.7 °C 29.9 in /  1013.8 hPa Calm   1 mph /  1.6 km/h 66 % 0 in /  0.0 mm
04:35 74.3 °F /  23.5 °C 61.9 °F /  16.6 °C 29.9 in /  1013.8 hPa ENE 1 mph /  1.6 km/h 3 mph /  4.8 km/h 65 % 0 in /  0.0 mm
04:45 75.2 °F /  24.0 °C 61.7 °F /  16.5 °C 29.9 in /  1013.8 hPa SE 1 mph /  1.6 km/h 3 mph /  4.8 km/h 63 % 0 in /  0.0 mm
04:55 75.6 °F /  24.2 °C 61.5 °F /  16.4 °C 29.9 in /  1013.8 hPa SSE 1 mph /  1.6 km/h 3 mph /  4.8 km/h 62 % 0 in /  0.0 mm
05:05 76.6 °F /  24.8 °C 63.1 °F /  17.3 °C 29.9 in /  1013.8 hPa ESE 1 mph /  1.6 km/h 3 mph /  4.8 km/h 63 % 0 in /  0.0 mm
05:15 75.7 °F /  24.3 °C 61.3 °F /  16.3 °C 29.9 in /  1013.8 hPa East 3 mph /  4.8 km/h 5 mph /  8.0 km/h 61 % 0 in /  0.0 mm
05:25 76.6 °F /  24.8 °C 62.2 °F /  16.8 °C 29.9 in /  1012.8 hPa SE 2 mph /  3.2 km/h 3 mph /  4.8 km/h 61 % 0 in /  0.0 mm
10:25 77.4 °F /  25.2 °C 61.9 °F /  16.6 °C 29.9 in /  1012.8 hPa SSE 4.6 mph /  7.4 km/h 4.6 mph /  7.4 km/h 59 % 0 in /  0.0 mm
10:30 78.4 °F /  25.8 °C 63 °F /  17.2 °C 29.9 in /  1012.8 hPa SE 2.4 mph /  3.9 km/h   59 % 0 in /  0.0 mm
10:35 77.7 °F /  25.4 °C 62.2 °F /  16.8 °C 29.9 in /  1012.8 hPa ESE 3.5 mph /  5.6 km/h 3.5 mph /  5.6 km/h 59 % 0 in /  0.0 mm
10:40 78.8 °F /  26.0 °C 63.3 °F /  17.4 °C 29.9 in /  1012.8 hPa ESE 1.2 mph /  1.9 km/h 1.4 mph /  2.3 km/h 59 % 0 in /  0.0 mm
10:45 79 °F /  26.1 °C 63 °F /  17.2 °C 29.9 in /  1012.8 hPa SSW 3.5 mph /  5.6 km/h 3.5 mph /  5.6 km/h 58 % 0 in /  0.0 mm
10:50 79.9 °F /  26.6 °C 63.3 °F /  17.4 °C 29.9 in /  1013.8 hPa SW 1.4 mph /  2.3 km/h 1.4 mph /  2.3 km/h 57 % 0 in /  0.0 mm
10:55 80.4 °F /  26.9 °C 63.3 °F /  17.4 °C 29.9 in /  1013.8 hPa NE 5.8 mph /  9.3 km/h 5.8 mph /  9.3 km/h 56 % 0 in /  0.0 mm
11:00 79.9 °F /  26.6 °C 62.8 °F /  17.1 °C 29.9 in /  1013.8 hPa East 3.6 mph /  5.8 km/h 3.6 mph /  5.8 km/h 56 % 0 in /  0.0 mm
11:05 79.5 °F /  26.4 °C 62.4 °F /  16.9 °C 29.9 in /  1013.8 hPa NW 2.3 mph /  3.7 km/h 2.3 mph /  3.7 km/h 56 % 0 in /  0.0 mm
11:06 79.5 °F /  26.4 °C 62.4 °F /  16.9 °C 29.9 in /  1013.8 hPa NW 2.3 mph /  3.7 km/h 2.3 mph /  3.7 km/h 56 % 0 in /  0.0 mm
11:11 80.4 °F /  26.9 °C 63.3 °F /  17.4 °C 29.9 in /  1013.8 hPa SW 4.3 mph /  6.9 km/h 4.3 mph /  6.9 km/h 56 % 0 in /  0.0 mm
11:16 80.6 °F /  27.0 °C 62.4 °F /  16.9 °C 29.9 in /  1013.8 hPa NNW 5.8 mph /  9.3 km/h 5.8 mph /  9.3 km/h 54 % 0 in /  0.0 mm
11:21 81.5 °F /  27.5 °C 62.8 °F /  17.1 °C 29.9 in /  1013.8 hPa SSE 2.3 mph /  3.7 km/h 2.3 mph /  3.7 km/h 53 % 0 in /  0.0 mm
11:26 82.2 °F /  27.9 °C 62.8 °F /  17.1 °C 29.9 in /  1013.8 hPa SW 4.6 mph /  7.4 km/h 4.6 mph /  7.4 km/h 52 % 0 in /  0.0 mm
11:31 83.5 °F /  28.6 °C 64 °F /  17.8 °C 29.9 in /  1013.8 hPa WSW 2.9 mph /  4.7 km/h 2.9 mph /  4.7 km/h 52 % 0 in /  0.0 mm
11:36 82.8 °F /  28.2 °C 62.8 °F /  17.1 °C 29.9 in /  1012.8 hPa South 2.3 mph /  3.7 km/h 2.3 mph /  3.7 km/h 51 % 0 in /  0.0 mm
11:41 82.2 °F /  27.9 °C 62.2 °F /  16.8 °C 29.9 in /  1012.8 hPa SW 5.9 mph /  9.5 km/h 5.9 mph /  9.5 km/h 51 % 0 in /  0.0 mm
11:46 84 °F /  28.9 °C 63.3 °F /  17.4 °C 29.9 in /  1012.8 hPa SW 2.3 mph /  3.7 km/h 2.3 mph /  3.7 km/h 50 % 0 in /  0.0 mm
11:51 84.2 °F /  29.0 °C 63 °F /  17.2 °C 29.9 in /  1012.8 hPa WSW 5.8 mph /  9.3 km/h 5.8 mph /  9.3 km/h 49 % 0 in /  0.0 mm
11:56 85.5 °F /  29.7 °C 63.5 °F /  17.5 °C 29.9 in /  1012.8 hPa SW 7.4 mph /  11.9 km/h 7.4 mph /  11.9 km/h 48 % 0 in /  0.0 mm
12:01 85.8 °F /  29.9 °C 63.3 °F /  17.4 °C 29.9 in /  1012.8 hPa WSW 2.3 mph /  3.7 km/h 2.3 mph /  3.7 km/h 47 % 0 in /  0.0 mm
12:06 86.5 °F /  30.3 °C 63.9 °F /  17.7 °C 29.9 in /  1012.8 hPa SSW 3.5 mph /  5.6 km/h 3.5 mph /  5.6 km/h 47 % 0 in /  0.0 mm
12:11 85.5 °F /  29.7 °C 63 °F /  17.2 °C 29.9 in /  1012.8 hPa WNW 8.1 mph /  13.0 km/h 8.1 mph /  13.0 km/h 47 % 0 in /  0.0 mm
12:16 84.9 °F /  29.4 °C 61.9 °F /  16.6 °C 29.9 in /  1012.8 hPa SW 4.7 mph /  7.6 km/h 4.7 mph /  7.6 km/h 46 % 0 in /  0.0 mm
12:21 85.1 °F /  29.5 °C 62.1 °F /  16.7 °C 29.9 in /  1012.8 hPa South 6.9 mph /  11.1 km/h 6.9 mph /  11.1 km/h 46 % 0 in /  0.0 mm
12:26 85.5 °F /  29.7 °C 62.2 °F /  16.8 °C 29.9 in /  1012.8 hPa South 5.9 mph /  9.5 km/h 5.9 mph /  9.5 km/h 46 % 0 in /  0.0 mm
12:31 86.7 °F /  30.4 °C 62.8 °F /  17.1 °C 29.9 in /  1012.8 hPa SSW 6.9 mph /  11.1 km/h 6.9 mph /  11.1 km/h 45 % 0 in /  0.0 mm
12:36 87.1 °F /  30.6 °C 63.1 °F /  17.3 °C 29.9 in /  1012.8 hPa SW 3.6 mph /  5.8 km/h 3.6 mph /  5.8 km/h 45 % 0 in /  0.0 mm
12:41 87.4 °F /  30.8 °C 63.5 °F /  17.5 °C 29.9 in /  1012.8 hPa SSE 4.6 mph /  7.4 km/h 4.6 mph /  7.4 km/h 45 % 0 in /  0.0 mm
12:46 87.3 °F /  30.7 °C 62.8 °F /  17.1 °C 29.9 in /  1012.8 hPa WSW 8.1 mph /  13.0 km/h 8.1 mph /  13.0 km/h 44 % 0 in /  0.0 mm
12:51 88.7 °F /  31.5 °C 64 °F /  17.8 °C 29.9 in /  1011.7 hPa SW 5.8 mph /  9.3 km/h 5.8 mph /  9.3 km/h 44 % 0 in /  0.0 mm
12:56 89.2 °F /  31.8 °C 64.6 °F /  18.1 °C 29.9 in /  1011.7 hPa West 3.5 mph /  5.6 km/h 3.5 mph /  5.6 km/h 44 % 0 in /  0.0 mm
13:01 88.9 °F /  31.6 °C 64 °F /  17.8 °C 29.9 in /  1011.7 hPa SW 4.6 mph /  7.4 km/h 4.6 mph /  7.4 km/h 44 % 0 in /  0.0 mm
13:06 89.4 °F /  31.9 °C 63.3 °F /  17.4 °C 29.9 in /  1011.7 hPa SSE 3.8 mph /  6.1 km/h 3.8 mph /  6.1 km/h 42 % 0 in /  0.0 mm
13:11 88.7 °F /  31.5 °C 62.8 °F /  17.1 °C 29.9 in /  1011.7 hPa South 4.6 mph /  7.4 km/h 4.6 mph /  7.4 km/h 42 % 0 in /  0.0 mm
13:16 89.1 °F /  31.7 °C 63 °F /  17.2 °C 29.9 in /  1011.7 hPa NE 6.9 mph /  11.1 km/h 6.9 mph /  11.1 km/h 42 % 0 in /  0.0 mm
13:21 89.4 °F /  31.9 °C 64 °F /  17.8 °C 29.8 in /  1010.7 hPa SSW 2.3 mph /  3.7 km/h 2.3 mph /  3.7 km/h 43 % 0 in /  0.0 mm
13:26 90.9 °F /  32.7 °C 65.3 °F /  18.5 °C 29.8 in /  1010.7 hPa South 3.5 mph /  5.6 km/h 3.5 mph /  5.6 km/h 43 % 0 in /  0.0 mm
13:31 91.9 °F /  33.3 °C 65.7 °F /  18.7 °C 29.8 in /  1010.7 hPa SSE 4.3 mph /  6.9 km/h 4.3 mph /  6.9 km/h 42 % 0 in /  0.0 mm
13:36 89.6 °F /  32.0 °C 64 °F /  17.8 °C 29.9 in /  1011.7 hPa ESE 7.1 mph /  11.4 km/h 7.1 mph /  11.4 km/h 43 % 0 in /  0.0 mm
13:41 88.9 °F /  31.6 °C 64 °F /  17.8 °C 29.9 in /  1011.7 hPa WSW 8.1 mph /  13.0 km/h 8.1 mph /  13.0 km/h 44 % 0 in /  0.0 mm
13:46 90.1 °F /  32.3 °C 65.3 °F /  18.5 °C 29.9 in /  1011.7 hPa WNW 4.9 mph /  7.9 km/h 4.9 mph /  7.9 km/h 44 % 0 in /  0.0 mm
13:51 91.2 °F /  32.9 °C 66.4 °F /  19.1 °C 29.9 in /  1011.7 hPa SSW 6.2 mph /  10.0 km/h 6.2 mph /  10.0 km/h 44 % 0 in /  0.0 mm
13:56 91 °F /  32.8 °C 65.5 °F /  18.6 °C 29.9 in /  1011.7 hPa SSW 5.8 mph /  9.3 km/h 5.8 mph /  9.3 km/h 43 % 0 in /  0.0 mm
14:01 91.4 °F /  33.0 °C 65.8 °F /  18.8 °C 29.9 in /  1011.7 hPa SW 5.8 mph /  9.3 km/h 5.8 mph /  9.3 km/h 43 % 0 in /  0.0 mm
14:06 90.7 °F /  32.6 °C 65.1 °F /  18.4 °C 29.9 in /  1011.7 hPa SW 5.9 mph /  9.5 km/h 5.9 mph /  9.5 km/h 43 % 0 in /  0.0 mm
14:11 90 °F /  32.2 °C 64.6 °F /  18.1 °C 29.9 in /  1011.7 hPa SW 8.1 mph /  13.0 km/h 8.1 mph /  13.0 km/h 43 % 0 in /  0.0 mm
14:16 89.6 °F /  32.0 °C 64 °F /  17.8 °C 29.9 in /  1011.7 hPa SSW 8.1 mph /  13.0 km/h 8.1 mph /  13.0 km/h 43 % 0 in /  0.0 mm
14:21 89.6 °F /  32.0 °C 64.8 °F /  18.2 °C 29.9 in /  1011.7 hPa WSW 8.1 mph /  13.0 km/h 8.1 mph /  13.0 km/h 44 % 0 in /  0.0 mm
14:26 90.9 °F /  32.7 °C 65.8 °F /  18.8 °C 29.9 in /  1011.7 hPa SW 7.4 mph /  11.9 km/h 7.4 mph /  11.9 km/h 44 % 0 in /  0.0 mm
14:31 89.2 °F /  31.8 °C 64.6 °F /  18.1 °C 29.9 in /  1011.7 hPa SW 8.1 mph /  13.0 km/h 8.1 mph /  13.0 km/h 44 % 0 in /  0.0 mm
14:36 90 °F /  32.2 °C 65.1 °F /  18.4 °C 29.9 in /  1011.7 hPa WSW 9.2 mph /  14.8 km/h 9.2 mph /  14.8 km/h 44 % 0 in /  0.0 mm
14:41 90 °F /  32.2 °C 65.1 °F /  18.4 °C 29.9 in /  1011.7 hPa SSW 8.1 mph /  13.0 km/h 8.1 mph /  13.0 km/h 44 % 0 in /  0.0 mm
14:46 91.2 °F /  32.9 °C 66.4 °F /  19.1 °C 29.9 in /  1011.7 hPa WSW 5.8 mph /  9.3 km/h 5.8 mph /  9.3 km/h 44 % 0 in /  0.0 mm
14:51 91.2 °F /  32.9 °C 66.4 °F /  19.1 °C 29.9 in /  1011.7 hPa SSE 2.3 mph /  3.7 km/h 2.3 mph /  3.7 km/h 44 % 0 in /  0.0 mm
14:56 91.4 °F /  33.0 °C 65.8 °F /  18.8 °C 29.9 in /  1011.7 hPa WSW 5.8 mph /  9.3 km/h 5.8 mph /  9.3 km/h 43 % 0 in /  0.0 mm
15:01 91.6 °F /  33.1 °C 66.6 °F /  19.2 °C 29.9 in /  1011.7 hPa WNW 4.6 mph /  7.4 km/h 4.6 mph /  7.4 km/h 44 % 0 in /  0.0 mm
15:06 91.4 °F /  33.0 °C 66.4 °F /  19.1 °C 29.9 in /  1011.7 hPa WSW 9.7 mph /  15.6 km/h 9.7 mph /  15.6 km/h 44 % 0 in /  0.0 mm
15:11 90.9 °F /  32.7 °C 65.8 °F /  18.8 °C 29.9 in /  1011.7 hPa West 9.2 mph /  14.8 km/h 9.2 mph /  14.8 km/h 44 % 0 in /  0.0 mm
15:16 91 °F /  32.8 °C 66 °F /  18.9 °C 29.9 in /  1011.7 hPa SW 3.5 mph /  5.6 km/h 3.5 mph /  5.6 km/h 44 % 0 in /  0.0 mm
15:21 91.6 °F /  33.1 °C 66.6 °F /  19.2 °C 29.8 in /  1010.7 hPa SW 6.9 mph /  11.1 km/h 6.9 mph /  11.1 km/h 44 % 0 in /  0.0 mm
15:26 91 °F /  32.8 °C 66 °F /  18.9 °C 29.8 in /  1010.7 hPa SSW 5.8 mph /  9.3 km/h 5.8 mph /  9.3 km/h 44 % 0 in /  0.0 mm
15:31 91.8 °F /  33.2 °C 66 °F /  18.9 °C 29.8 in /  1010.7 hPa WSW 9.2 mph /  14.8 km/h 9.2 mph /  14.8 km/h 43 % 0 in /  0.0 mm
15:36 90.9 °F /  32.7 °C 65.8 °F /  18.8 °C 29.8 in /  1010.7 hPa South 9.2 mph /  14.8 km/h 9.2 mph /  14.8 km/h 44 % 0 in /  0.0 mm
15:41 90 °F /  32.2 °C 65.1 °F /  18.4 °C 29.8 in /  1010.7 hPa ESE 5.8 mph /  9.3 km/h 5.8 mph /  9.3 km/h 44 % 0 in /  0.0 mm
15:46 90.9 °F /  32.7 °C 65.8 °F /  18.8 °C 29.8 in /  1010.7 hPa SSW 6.9 mph /  11.1 km/h 6.9 mph /  11.1 km/h 44 % 0 in /  0.0 mm
15:51 90.3 °F /  32.4 °C 66 °F /  18.9 °C 29.8 in /  1010.7 hPa South 4.6 mph /  7.4 km/h 4.6 mph /  7.4 km/h 45 % 0 in /  0.0 mm
15:56 90.3 °F /  32.4 °C 66 °F /  18.9 °C 29.8 in /  1010.7 hPa SW 9.2 mph /  14.8 km/h 9.2 mph /  14.8 km/h 45 % 0 in /  0.0 mm
16:01 90.5 °F /  32.5 °C 66.4 °F /  19.1 °C 29.8 in /  1010.7 hPa SW 8.1 mph /  13.0 km/h 8.1 mph /  13.0 km/h 45 % 0 in /  0.0 mm
16:06 89.8 °F /  32.1 °C 65.7 °F /  18.7 °C 29.8 in /  1010.7 hPa SE 7.8 mph /  12.6 km/h 7.8 mph /  12.6 km/h 45 % 0 in /  0.0 mm
16:11 90.5 °F /  32.5 °C 66.4 °F /  19.1 °C 29.8 in /  1010.7 hPa SW 8.1 mph /  13.0 km/h 8.1 mph /  13.0 km/h 45 % 0 in /  0.0 mm
16:16 90.3 °F /  32.4 °C 66 °F /  18.9 °C 29.8 in /  1010.7 hPa SW 3.5 mph /  5.6 km/h 3.6 mph /  5.8 km/h 45 % 0 in /  0.0 mm
16:21 90.1 °F /  32.3 °C 65.8 °F /  18.8 °C 29.8 in /  1010.7 hPa SW 4.6 mph /  7.4 km/h 4.6 mph /  7.4 km/h 45 % 0 in /  0.0 mm
16:26 90.5 °F /  32.5 °C 66.4 °F /  19.1 °C 29.8 in /  1010.7 hPa SSW 6.9 mph /  11.1 km/h 6.9 mph /  11.1 km/h 45 % 0 in /  0.0 mm
16:31 90 °F /  32.2 °C 65.8 °F /  18.8 °C 29.8 in /  1010.7 hPa South 10.5 mph /  16.9 km/h 10.5 mph /  16.9 km/h 45 % 0 in /  0.0 mm
16:36 90 °F /  32.2 °C 65.1 °F /  18.4 °C 29.8 in /  1010.7 hPa West 5.4 mph /  8.7 km/h 5.4 mph /  8.7 km/h 44 % 0 in /  0.0 mm
16:41 89.8 °F /  32.1 °C 64.9 °F /  18.3 °C 29.8 in /  1010.7 hPa SSE 8.1 mph /  13.0 km/h 8.1 mph /  13.0 km/h 44 % 0 in /  0.0 mm
16:46 90.1 °F /  32.3 °C 65.3 °F /  18.5 °C 29.8 in /  1010.7 hPa SSE 9.2 mph /  14.8 km/h 9.2 mph /  14.8 km/h 44 % 0 in /  0.0 mm
16:51 90.7 °F /  32.6 °C 65.1 °F /  18.4 °C 29.8 in /  1010.7 hPa West 2.3 mph /  3.7 km/h 2.4 mph /  3.9 km/h 43 % 0 in /  0.0 mm
16:56 90.9 °F /  32.7 °C 65.3 °F /  18.5 °C 29.8 in /  1010.7 hPa SSW 5.8 mph /  9.3 km/h 5.8 mph /  9.3 km/h 43 % 0 in /  0.0 mm
17:01 90 °F /  32.2 °C 64.6 °F /  18.1 °C 29.8 in /  1010.7 hPa South 6.9 mph /  11.1 km/h 6.9 mph /  11.1 km/h 43 % 0 in /  0.0 mm
17:06 90.7 °F /  32.6 °C 65.1 °F /  18.4 °C 29.8 in /  1010.0 hPa SW 4.6 mph /  7.4 km/h 4.6 mph /  7.4 km/h 43 % 0 in /  0.0 mm
17:11 90.3 °F /  32.4 °C 64 °F /  17.8 °C 29.8 in /  1010.0 hPa SSW 6.2 mph /  10.0 km/h 6.2 mph /  10.0 km/h 42 % 0 in /  0.0 mm
17:16 90.1 °F /  32.3 °C 64 °F /  17.8 °C 29.8 in /  1010.0 hPa South 5.8 mph /  9.3 km/h 5.8 mph /  9.3 km/h 42 % 0 in /  0.0 mm
17:21 91 °F /  32.8 °C 64.8 °F /  18.2 °C 29.8 in /  1010.0 hPa South 5.8 mph /  9.3 km/h 5.8 mph /  9.3 km/h 42 % 0 in /  0.0 mm
17:26 90.3 °F /  32.4 °C 64 °F /  17.8 °C 29.8 in /  1010.0 hPa South 6.9 mph /  11.1 km/h 6.9 mph /  11.1 km/h 42 % 0 in /  0.0 mm
17:31 90.1 °F /  32.3 °C 64 °F /  17.8 °C 29.8 in /  1010.0 hPa SSW 4.6 mph /  7.4 km/h 4.6 mph /  7.4 km/h 42 % 0 in /  0.0 mm
17:32 90.1 °F /  32.3 °C 64 °F /  17.8 °C 29.8 in /  1010.0 hPa ESE 4.6 mph /  7.4 km/h 4.6 mph /  7.4 km/h 42 % 0 in /  0.0 mm
17:37 90.3 °F /  32.4 °C 64 °F /  17.8 °C 29.8 in /  1010.0 hPa SW 7.4 mph /  11.9 km/h 7.4 mph /  11.9 km/h 42 % 0 in /  0.0 mm
17:42 90 °F /  32.2 °C 63.9 °F /  17.7 °C 29.8 in /  1010.0 hPa South 4.6 mph /  7.4 km/h 4.6 mph /  7.4 km/h 42 % 0 in /  0.0 mm
17:47 90.5 °F /  32.5 °C 64.9 °F /  18.3 °C 29.8 in /  1010.0 hPa SW 4.6 mph /  7.4 km/h 4.6 mph /  7.4 km/h 43 % 0 in /  0.0 mm
17:52 89.1 °F /  31.7 °C 63.7 °F /  17.6 °C 29.8 in /  1010.0 hPa WSW 4.9 mph /  7.9 km/h 4.9 mph /  7.9 km/h 43 % 0 in /  0.0 mm
17:57 88.9 °F /  31.6 °C 64 °F /  17.8 °C 29.8 in /  1010.0 hPa SSE 5.8 mph /  9.3 km/h 5.8 mph /  9.3 km/h 44 % 0 in /  0.0 mm
18:02 89.4 °F /  31.9 °C 64.6 °F /  18.1 °C 29.8 in /  1010.0 hPa SW 7.8 mph /  12.6 km/h 7.8 mph /  12.6 km/h 44 % 0 in /  0.0 mm
18:07 88.5 °F /  31.4 °C 63.9 °F /  17.7 °C 29.8 in /  1010.0 hPa SSW 6.4 mph /  10.3 km/h 6.4 mph /  10.3 km/h 44 % 0 in /  0.0 mm
18:12 88.5 °F /  31.4 °C 64.6 °F /  18.1 °C 29.8 in /  1010.0 hPa SW 6.9 mph /  11.1 km/h 6.9 mph /  11.1 km/h 45 % 0 in /  0.0 mm
18:17 88.3 °F /  31.3 °C 64.2 °F /  17.9 °C 29.8 in /  1010.0 hPa South 4.6 mph /  7.4 km/h 4.6 mph /  7.4 km/h 45 % 0 in /  0.0 mm
18:22 88 °F /  31.1 °C 64 °F /  17.8 °C 29.8 in /  1010.0 hPa SW 8.1 mph /  13.0 km/h 8.1 mph /  13.0 km/h 45 % 0 in /  0.0 mm
18:27 87.8 °F /  31.0 °C 63.9 °F /  17.7 °C 29.8 in /  1010.0 hPa South 11.5 mph /  18.5 km/h 11.5 mph /  18.5 km/h 45 % 0 in /  0.0 mm
18:32 87.3 °F /  30.7 °C 64 °F /  17.8 °C 29.8 in /  1010.0 hPa SSW 9.2 mph /  14.8 km/h 9.2 mph /  14.8 km/h 46 % 0 in /  0.0 mm
18:37 87.3 °F /  30.7 °C 64 °F /  17.8 °C 29.8 in /  1010.0 hPa SW 8.1 mph /  13.0 km/h 8.1 mph /  13.0 km/h 46 % 0 in /  0.0 mm
18:42 87.1 °F /  30.6 °C 63.9 °F /  17.7 °C 29.8 in /  1010.0 hPa SE 6 mph /  9.7 km/h 6 mph /  9.7 km/h 46 % 0 in /  0.0 mm
18:47 87.1 °F /  30.6 °C 63.9 °F /  17.7 °C 29.8 in /  1010.0 hPa South 8.1 mph /  13.0 km/h 8.1 mph /  13.0 km/h 46 % 0 in /  0.0 mm
18:52 86.4 °F /  30.2 °C 63.1 °F /  17.3 °C 29.8 in /  1010.0 hPa SW 8.1 mph /  13.0 km/h 8.1 mph /  13.0 km/h 46 % 0 in /  0.0 mm
18:57 86.7 °F /  30.4 °C 63.5 °F /  17.5 °C 29.8 in /  1010.0 hPa SSW 6.9 mph /  11.1 km/h 6.9 mph /  11.1 km/h 46 % 0 in /  0.0 mm
19:02 86.5 °F /  30.3 °C 63.3 °F /  17.4 °C 29.8 in /  1010.0 hPa WSW 6.9 mph /  11.1 km/h 6.9 mph /  11.1 km/h 46 % 0 in /  0.0 mm
19:07 86.5 °F /  30.3 °C 63.3 °F /  17.4 °C 29.8 in /  1010.0 hPa South 8.1 mph /  13.0 km/h 8.1 mph /  13.0 km/h 46 % 0 in /  0.0 mm
19:12 86.7 °F /  30.4 °C 63.5 °F /  17.5 °C 29.8 in /  1010.0 hPa SSW 5.8 mph /  9.3 km/h 5.8 mph /  9.3 km/h 46 % 0 in /  0.0 mm
19:17 86.5 °F /  30.3 °C 63.3 °F /  17.4 °C 29.8 in /  1010.0 hPa SSW 8.1 mph /  13.0 km/h 8.1 mph /  13.0 km/h 46 % 0 in /  0.0 mm
19:22 86 °F /  30.0 °C 62.8 °F /  17.1 °C 29.8 in /  1010.0 hPa South 4.6 mph /  7.4 km/h 4.6 mph /  7.4 km/h 46 % 0 in /  0.0 mm
19:27 85.8 °F /  29.9 °C 63.3 °F /  17.4 °C 29.8 in /  1010.0 hPa South 4.6 mph /  7.4 km/h 4.6 mph /  7.4 km/h 47 % 0 in /  0.0 mm
19:32 85.6 °F /  29.8 °C 63.1 °F /  17.3 °C 29.8 in /  1010.0 hPa SSW 4.9 mph /  7.9 km/h 4.9 mph /  7.9 km/h 47 % 0 in /  0.0 mm
19:37 85.3 °F /  29.6 °C 62.8 °F /  17.1 °C 29.8 in /  1010.0 hPa SW 4.6 mph /  7.4 km/h 4.6 mph /  7.4 km/h 47 % 0 in /  0.0 mm
19:42 85.1 °F /  29.5 °C 62.6 °F /  17.0 °C 29.8 in /  1010.0 hPa WSW 4.6 mph /  7.4 km/h 4.6 mph /  7.4 km/h 47 % 0 in /  0.0 mm
19:47 84.9 °F /  29.4 °C 62.4 °F /  16.9 °C 29.8 in /  1010.0 hPa SSW 4.6 mph /  7.4 km/h 4.6 mph /  7.4 km/h 47 % 0 in /  0.0 mm
19:52 84.7 °F /  29.3 °C 62.2 °F /  16.8 °C 29.8 in /  1010.0 hPa SW 3.5 mph /  5.6 km/h 3.5 mph /  5.6 km/h 47 % 0 in /  0.0 mm
19:57 84.6 °F /  29.2 °C 62.1 °F /  16.7 °C 29.8 in /  1010.0 hPa SW 6.2 mph /  10.0 km/h 6.2 mph /  10.0 km/h 47 % 0 in /  0.0 mm
20:02 84 °F /  28.9 °C 62.8 °F /  17.1 °C 29.8 in /  1010.0 hPa SW 4.3 mph /  6.9 km/h 4.3 mph /  6.9 km/h 49 % 0 in /  0.0 mm
20:07 83.7 °F /  28.7 °C 63 °F /  17.2 °C 29.8 in /  1009.0 hPa West 5.8 mph /  9.3 km/h 5.8 mph /  9.3 km/h 50 % 0 in /  0.0 mm
20:12 83.5 °F /  28.6 °C 63 °F /  17.2 °C 29.8 in /  1009.0 hPa SW 3.5 mph /  5.6 km/h 3.5 mph /  5.6 km/h 50 % 0 in /  0.0 mm
20:17 83.5 °F /  28.6 °C 63.3 °F /  17.4 °C 29.8 in /  1009.0 hPa SSW 5.8 mph /  9.3 km/h 5.8 mph /  9.3 km/h 51 % 0 in /  0.0 mm
20:22 83.1 °F /  28.4 °C 63.1 °F /  17.3 °C 29.8 in /  1009.0 hPa SSW 4.6 mph /  7.4 km/h 4.6 mph /  7.4 km/h 51 % 0 in /  0.0 mm
20:27 82.9 °F /  28.3 °C 63.5 °F /  17.5 °C 29.8 in /  1009.0 hPa SW 4.7 mph /  7.6 km/h   52 % 0 in /  0.0 mm
20:32 82.8 °F /  28.2 °C 63.9 °F /  17.7 °C 29.8 in /  1009.0 hPa WSW 2.3 mph /  3.7 km/h 2.4 mph /  3.9 km/h 53 % 0 in /  0.0 mm
20:33 82.8 °F /  28.2 °C 63.9 °F /  17.7 °C 29.8 in /  1009.0 hPa WSW 2.3 mph /  3.7 km/h 2.4 mph /  3.9 km/h 53 % 0 in /  0.0 mm
20:35 73.9 °F /  23.3 °C 66.4 °F /  19.1 °C 29.9 in /  1013.8 hPa Calm   1 mph /  1.6 km/h 77 % 0 in /  0.0 mm
20:38 82.6 °F /  28.1 °C 63.7 °F /  17.6 °C 29.8 in /  1010.0 hPa SSW 3.5 mph /  5.6 km/h 3.5 mph /  5.6 km/h 53 % 0 in /  0.0 mm
20:43 82.4 °F /  28.0 °C 64 °F /  17.8 °C 29.8 in /  1010.0 hPa SSW 3.1 mph /  5.0 km/h 3.1 mph /  5.0 km/h 54 % 0 in /  0.0 mm
20:45 73.8 °F /  23.2 °C 66.6 °F /  19.2 °C 29.9 in /  1013.8 hPa NNE 2 mph /  3.2 km/h 3 mph /  4.8 km/h 78 % 0 in /  0.0 mm
20:48 81.9 °F /  27.7 °C 63.7 °F /  17.6 °C 29.8 in /  1010.0 hPa WSW 3.5 mph /  5.6 km/h 3.5 mph /  5.6 km/h 54 % 0 in /  0.0 mm
20:53 81.5 °F /  27.5 °C 63.9 °F /  17.7 °C 29.8 in /  1010.0 hPa SW 2.3 mph /  3.7 km/h 2.3 mph /  3.7 km/h 55 % 0 in /  0.0 mm
20:55 73.6 °F /  23.1 °C 66.4 °F /  19.1 °C 29.9 in /  1013.8 hPa NE 1 mph /  1.6 km/h 2 mph /  3.2 km/h 78 % 0 in /  0.0 mm
20:58 81.3 °F /  27.4 °C 64 °F /  17.8 °C 29.8 in /  1010.0 hPa SW 3.5 mph /  5.6 km/h 3.5 mph /  5.6 km/h 56 % 0 in /  0.0 mm
21:03 81 °F /  27.2 °C 63.9 °F /  17.7 °C 29.8 in /  1010.0 hPa West 6.9 mph /  11.1 km/h 6.9 mph /  11.1 km/h 56 % 0 in /  0.0 mm
21:05 73.4 °F /  23.0 °C 66.6 °F /  19.2 °C 29.9 in /  1013.8 hPa Calm   1 mph /  1.6 km/h 79 % 0 in /  0.0 mm
21:08 80.8 °F /  27.1 °C 64 °F /  17.8 °C 29.8 in /  1010.0 hPa SSW 4.6 mph /  7.4 km/h 4.6 mph /  7.4 km/h 57 % 0 in /  0.0 mm
21:13 80.4 °F /  26.9 °C 64.2 °F /  17.9 °C 29.8 in /  1010.0 hPa SW 3.5 mph /  5.6 km/h 3.5 mph /  5.6 km/h 58 % 0 in /  0.0 mm
21:15 73.2 °F /  22.9 °C 66.7 °F /  19.3 °C 29.9 in /  1013.8 hPa Calm   1 mph /  1.6 km/h 80 % 0 in /  0.0 mm
21:18 80.2 °F /  26.8 °C 64 °F /  17.8 °C 29.8 in /  1010.0 hPa SW 4.6 mph /  7.4 km/h 4.6 mph /  7.4 km/h 58 % 0 in /  0.0 mm
21:23 80.1 °F /  26.7 °C 64 °F /  17.8 °C 29.8 in /  1010.0 hPa SW 3.5 mph /  5.6 km/h 3.6 mph /  5.8 km/h 58 % 0 in /  0.0 mm
21:25 73 °F /  22.8 °C 66 °F /  18.9 °C 29.9 in /  1013.8 hPa NE 1 mph /  1.6 km/h 1 mph /  1.6 km/h 79 % 0 in /  0.0 mm
21:28 79.7 °F /  26.5 °C 64 °F /  17.8 °C 29.8 in /  1010.0 hPa SSW 3.3 mph /  5.3 km/h 3.3 mph /  5.3 km/h 59 % 0 in /  0.0 mm
21:33 79.5 °F /  26.4 °C 63.9 °F /  17.7 °C 29.8 in /  1010.0 hPa SW 3.5 mph /  5.6 km/h 3.5 mph /  5.6 km/h 59 % 0 in /  0.0 mm
21:35 72.9 °F /  22.7 °C 66 °F /  18.9 °C 29.9 in /  1013.8 hPa Calm   1 mph /  1.6 km/h 79 % 0 in /  0.0 mm
21:38 79.2 °F /  26.2 °C 63.7 °F /  17.6 °C 29.8 in /  1010.7 hPa SW 3.5 mph /  5.6 km/h 3.5 mph /  5.6 km/h 59 % 0 in /  0.0 mm
21:43 79 °F /  26.1 °C 63.9 °F /  17.7 °C 29.8 in /  1010.7 hPa WSW 2.3 mph /  3.7 km/h 2.3 mph /  3.7 km/h 60 % 0 in /  0.0 mm
21:45 72.5 °F /  22.5 °C 66 °F /  18.9 °C 29.9 in /  1013.8 hPa Calm   1 mph /  1.6 km/h 80 % 0 in /  0.0 mm
21:48 78.8 °F /  26.0 °C 63.7 °F /  17.6 °C 29.8 in /  1010.7 hPa SW 2.3 mph /  3.7 km/h 2.3 mph /  3.7 km/h 60 % 0 in /  0.0 mm
21:53 78.8 °F /  26.0 °C 63.7 °F /  17.6 °C 29.8 in /  1010.7 hPa SW 2.3 mph /  3.7 km/h 2.3 mph /  3.7 km/h 60 % 0 in /  0.0 mm
21:55 72.3 °F /  22.4 °C 65.8 °F /  18.8 °C 29.9 in /  1012.8 hPa Calm     80 % 0 in /  0.0 mm
21:58 78.6 °F /  25.9 °C 64 °F /  17.8 °C 29.8 in /  1010.7 hPa WSW 1.2 mph /  1.9 km/h 1.4 mph /  2.3 km/h 61 % 0 in /  0.0 mm
22:03 78.6 °F /  25.9 °C 64 °F /  17.8 °C 29.8 in /  1010.7 hPa SW 2.3 mph /  3.7 km/h 2.3 mph /  3.7 km/h 61 % 0 in /  0.0 mm
22:05 72.3 °F /  22.4 °C 66.2 °F /  19.0 °C 29.9 in /  1013.8 hPa Calm     81 % 0 in /  0.0 mm
22:08 78.4 °F /  25.8 °C 63.9 °F /  17.7 °C 29.9 in /  1011.7 hPa WSW 2.3 mph /  3.7 km/h 2.3 mph /  3.7 km/h 61 % 0 in /  0.0 mm
22:13 78.1 °F /  25.6 °C 64 °F /  17.8 °C 29.9 in /  1011.7 hPa SW 2.2 mph /  3.5 km/h   62 % 0 in /  0.0 mm
22:15 72.3 °F /  22.4 °C 66.2 °F /  19.0 °C 29.9 in /  1013.8 hPa Calm   1 mph /  1.6 km/h 81 % 0 in /  0.0 mm
22:18 78.1 °F /  25.6 °C 64 °F /  17.8 °C 29.9 in /  1011.7 hPa SW 2.3 mph /  3.7 km/h 2.3 mph /  3.7 km/h 62 % 0 in /  0.0 mm
22:23 77.9 °F /  25.5 °C 63.9 °F /  17.7 °C 29.9 in /  1011.7 hPa SW 2.3 mph /  3.7 km/h 2.3 mph /  3.7 km/h 62 % 0 in /  0.0 mm
22:25 72.1 °F /  22.3 °C 66 °F /  18.9 °C 29.9 in /  1013.8 hPa Calm     81 % 0 in /  0.0 mm
22:28 77.9 °F /  25.5 °C 63.9 °F /  17.7 °C 29.9 in /  1011.7 hPa SW 1.4 mph /  2.3 km/h 1.4 mph /  2.3 km/h 62 % 0 in /  0.0 mm
22:33 77.7 °F /  25.4 °C 63.7 °F /  17.6 °C 29.9 in /  1011.7 hPa SW 2.3 mph /  3.7 km/h 2.3 mph /  3.7 km/h 62 % 0 in /  0.0 mm
22:35 72 °F /  22.2 °C 66.2 °F /  19.0 °C 29.9 in /  1013.8 hPa Calm     82 % 0 in /  0.0 mm
22:38 77.4 °F /  25.2 °C 63.9 °F /  17.7 °C 29.9 in /  1012.8 hPa SW 2.3 mph /  3.7 km/h 2.3 mph /  3.7 km/h 63 % 0 in /  0.0 mm
22:43 77.2 °F /  25.1 °C 63.7 °F /  17.6 °C 29.9 in /  1012.8 hPa SW 1.2 mph /  1.9 km/h 1.2 mph /  1.9 km/h 63 % 0 in /  0.0 mm
22:45 72 °F /  22.2 °C 66.2 °F /  19.0 °C 29.9 in /  1013.8 hPa Calm   1 mph /  1.6 km/h 82 % 0 in /  0.0 mm
22:48 77.2 °F /  25.1 °C 64 °F /  17.8 °C 29.9 in /  1012.8 hPa SSW 2.3 mph /  3.7 km/h 2.3 mph /  3.7 km/h 64 % 0 in /  0.0 mm
22:53 76.8 °F /  24.9 °C 64.6 °F /  18.1 °C 29.8 in /  1010.7 hPa Calm     66 % 0 in /  0.0 mm
22:55 72 °F /  22.2 °C 66.2 °F /  19.0 °C 29.9 in /  1013.8 hPa Calm   1 mph /  1.6 km/h 82 % 0 in /  0.0 mm
22:58 76.8 °F /  24.9 °C 64.6 °F /  18.1 °C 29.8 in /  1010.7 hPa WSW 1.2 mph /  1.9 km/h   66 % 0 in /  0.0 mm
23:03 76.8 °F /  24.9 °C 64.6 °F /  18.1 °C 29.8 in /  1010.7 hPa WSW 2.9 mph /  4.7 km/h 2.9 mph /  4.7 km/h 66 % 0 in /  0.0 mm
23:05 71.8 °F /  22.1 °C 66 °F /  18.9 °C 29.9 in /  1013.8 hPa Calm     82 % 0 in /  0.0 mm
23:08 76.6 °F /  24.8 °C 64.4 °F /  18.0 °C 29.9 in /  1011.7 hPa WSW 3.5 mph /  5.6 km/h 3.5 mph /  5.6 km/h 66 % 0 in /  0.0 mm
23:13 76.5 °F /  24.7 °C 64.8 °F /  18.2 °C 29.9 in /  1011.7 hPa SW 1.2 mph /  1.9 km/h 1.2 mph /  1.9 km/h 67 % 0 in /  0.0 mm
23:15 71.8 °F /  22.1 °C 66 °F /  18.9 °C 29.9 in /  1013.8 hPa Calm     82 % 0 in /  0.0 mm
23:18 76.5 °F /  24.7 °C 65.1 °F /  18.4 °C 29.9 in /  1011.7 hPa SW 1.2 mph /  1.9 km/h   68 % 0 in /  0.0 mm
23:23 76.3 °F /  24.6 °C 65.5 °F /  18.6 °C 29.9 in /  1011.7 hPa Calm     69 % 0 in /  0.0 mm
23:25 71.8 °F /  22.1 °C 66.4 °F /  19.1 °C 29.9 in /  1013.8 hPa Calm     83 % 0 in /  0.0 mm
23:28 76.1 °F /  24.5 °C 65.1 °F /  18.4 °C 29.9 in /  1011.7 hPa Calm     69 % 0 in /  0.0 mm
23:33 76.1 °F /  24.5 °C 65.7 °F /  18.7 °C 29.9 in /  1011.7 hPa NNE 1.2 mph /  1.9 km/h   70 % 0 in /  0.0 mm
23:35 71.6 °F /  22.0 °C 66.2 °F /  19.0 °C 29.9 in /  1012.8 hPa NE 1 mph /  1.6 km/h 2 mph /  3.2 km/h 83 % 0 in /  0.0 mm
23:38 75.9 °F /  24.4 °C 65.8 °F /  18.8 °C 29.9 in /  1012.8 hPa Calm     71 % 0 in /  0.0 mm
23:43 75.7 °F /  24.3 °C 65.7 °F /  18.7 °C 29.9 in /  1012.8 hPa Calm     71 % 0 in /  0.0 mm
23:45 71.4 °F /  21.9 °C 66 °F /  18.9 °C 29.9 in /  1012.8 hPa Calm     83 % 0 in /  0.0 mm
23:48 75.7 °F /  24.3 °C 66 °F /  18.9 °C 29.9 in /  1012.8 hPa NNW 1.2 mph /  1.9 km/h   72 % 0 in /  0.0 mm
23:53 75.7 °F /  24.3 °C 66.6 °F /  19.2 °C 29.9 in /  1012.8 hPa Calm     73 % 0 in /  0.0 mm
23:55 71.1 °F /  21.7 °C 65.7 °F /  18.7 °C 29.9 in /  1012.8 hPa Calm     83 % 0 in /  0.0 mm
23:58 75.7 °F /  24.3 °C 66.6 °F /  19.2 °C 29.9 in /  1012.8 hPa Calm     73 % 0 in /  0.0 mm
Meteo Sesrovires
Elogis d' Weather Underground - 3.75 mb

Guio original per  Jim McMurry - jmcmurry@mwt.net Adaptat per a la plantilla per  Wim van der Kuil - Leuven-Template.eu

Trobareu la nostra informacio del temps tambe a:

Weather Underground

AWEKAS